Terminal Aerodrome Forecast
Issued by NWS

Home | Current Version | Previous Version | Text Only | Print | Product List | Glossary On
Versions: 1 2 3 4 5 6 7 8 9 10 11 12 13 14 15
369
FTUS43 KLSX 121121
TAFUIN
TAF
KUIN 121121Z 1212/1312 32013KT P6SM SKC
     FM122300 28008KT P6SM SCT110
     FM130500 21005KT P6SM FEW080
     FM131000 19008KT P6SM SCT090 WS020/24035KT=

USA.gov is the U.S. government's official web portal to all federal, state and local government web resources and services.